Terminal Aerodrome Forecast
Issued by NWS

Home | Current Version | Previous Version | Text Only | Print | Product List | Glossary On
Versions: 1 2 3 4 5 6 7 8 9 10 11 12 13 14 15 16 17
000
FTUS43 KGRB 202337
TAFMTW
TAF
KMTW 202337Z 2100/2124 17009KT P6SM SCT250
     FM210200 VRB03KT P6SM BKN200
     FM211500 16008KT P6SM SKC=

USA.gov is the U.S. government's official web portal to all federal, state and local government web resources and services.